createdAt,value
2022-09-11T00:00:44.918Z,28.00
2022-09-11T00:03:19.076Z,28.35
2022-09-11T00:05:49.214Z,28.35
2022-09-11T00:08:20.597Z,27.42
2022-09-11T00:10:48.701Z,27.45
2022-09-11T00:13:24.376Z,26.85
2022-09-11T00:15:52.834Z,30.05
2022-09-11T00:18:39.913Z,28.70
2022-09-11T00:21:10.094Z,28.48
2022-09-11T00:23:40.357Z,27.15
2022-09-11T00:26:11.495Z,27.58
2022-09-11T00:28:42.690Z,26.75
2022-09-11T00:31:15.577Z,27.48
2022-09-11T00:33:43.513Z,26.05
2022-09-11T00:36:15.818Z,25.50
2022-09-11T00:38:45.891Z,25.42
2022-09-11T00:41:21.790Z,25.70
2022-09-11T00:44:00.232Z,23.52
2022-09-11T00:46:33.860Z,24.73
2022-09-11T00:49:03.188Z,25.67
2022-09-11T00:51:33.853Z,26.75
2022-09-11T00:54:04.096Z,25.45
2022-09-11T00:56:32.511Z,26.10
2022-09-11T00:59:01.235Z,25.75
2022-09-11T01:01:28.682Z,24.35
2022-09-11T01:03:56.280Z,23.73
2022-09-11T01:06:24.780Z,23.60
2022-09-11T01:08:59.280Z,23.17
2022-09-11T01:11:33.024Z,24.23
2022-09-11T01:14:01.198Z,24.90
2022-09-11T01:16:30.813Z,24.52
2022-09-11T01:19:17.564Z,24.10
2022-09-11T01:21:46.408Z,22.40
2022-09-11T01:24:26.351Z,22.02
2022-09-11T01:27:15.270Z,23.30
2022-09-11T01:29:42.838Z,22.42
2022-09-11T01:32:12.151Z,24.35
2022-09-11T01:34:52.308Z,24.90
2022-09-11T01:37:26.161Z,24.45
2022-09-11T01:40:01.364Z,25.42
2022-09-11T01:42:31.553Z,26.25
2022-09-11T01:44:59.536Z,26.98
2022-09-11T01:47:28.250Z,25.02
2022-09-11T01:50:04.586Z,28.50
2022-09-11T01:52:35.298Z,28.50
2022-09-11T01:55:05.701Z,27.48
2022-09-11T01:57:37.769Z,26.67
2022-09-11T02:00:07.838Z,28.35
2022-09-11T02:02:53.231Z,26.27
2022-09-11T02:05:23.361Z,29.27
2022-09-11T02:07:54.603Z,27.33
2022-09-11T02:10:32.769Z,28.35
2022-09-11T02:13:19.291Z,27.63
2022-09-11T02:15:52.199Z,28.55
2022-09-11T02:18:24.862Z,28.98
2022-09-11T02:20:53.979Z,25.88
2022-09-11T02:23:21.888Z,28.20
2022-09-11T02:25:53.017Z,27.13
2022-09-11T02:28:25.474Z,28.55
2022-09-11T02:30:54.881Z,29.08
2022-09-11T02:33:29.390Z,26.10
2022-09-11T02:36:05.169Z,30.08
2022-09-11T02:39:06.481Z,28.30
2022-09-11T02:41:46.594Z,27.70
2022-09-11T02:44:35.583Z,26.95
2022-09-11T02:47:22.169Z,27.55
2022-09-11T02:49:50.684Z,27.45
2022-09-11T02:52:23.160Z,29.48
2022-09-11T02:54:50.748Z,25.13
2022-09-11T02:57:25.102Z,27.17
2022-09-11T03:00:01.686Z,27.70
2022-09-11T03:02:32.029Z,27.42
2022-09-11T03:05:00.345Z,27.98
2022-09-11T03:07:27.855Z,25.38
2022-09-11T03:09:55.493Z,25.95
2022-09-11T03:12:25.495Z,29.13
2022-09-11T03:14:53.049Z,25.63
2022-09-11T03:17:22.016Z,26.70
2022-09-11T03:19:49.978Z,27.92
2022-09-11T03:22:26.215Z,25.58
2022-09-11T03:24:59.487Z,24.35
2022-09-11T03:27:32.127Z,24.83
2022-09-11T03:30:06.663Z,23.88
2022-09-11T03:32:34.227Z,25.27
2022-09-11T03:35:03.280Z,24.50
2022-09-11T03:37:32.408Z,24.42
2022-09-11T03:40:01.726Z,20.65
2022-09-11T03:42:33.572Z,24.60
2022-09-11T03:45:02.829Z,23.33
2022-09-11T03:47:39.555Z,21.92
2022-09-11T03:50:16.656Z,21.35
2022-09-11T03:52:44.317Z,23.63
2022-09-11T03:55:12.669Z,21.73
2022-09-11T03:57:40.812Z,22.85
2022-09-11T04:00:09.164Z,22.40
2022-09-11T04:02:52.288Z,23.38
2022-09-11T04:05:41.142Z,23.83
2022-09-11T04:08:21.875Z,24.70
2022-09-11T04:10:57.210Z,24.20
2022-09-11T04:13:31.442Z,24.60
2022-09-11T04:16:03.803Z,23.30
2022-09-11T04:18:37.886Z,22.13
2022-09-11T04:21:09.337Z,26.90
2022-09-11T04:23:40.152Z,23.98
2022-09-11T04:26:21.404Z,24.58
2022-09-11T04:28:53.161Z,24.08
2022-09-11T04:31:21.749Z,25.17
2022-09-11T04:33:57.521Z,25.57
2022-09-11T04:36:38.948Z,23.95
2022-09-11T04:39:14.835Z,27.45
2022-09-11T04:41:44.727Z,23.90
2022-09-11T04:44:20.932Z,25.65
2022-09-11T04:46:55.621Z,23.65
2022-09-11T04:49:27.674Z,26.00
2022-09-11T04:52:06.149Z,23.35
2022-09-11T04:54:37.763Z,20.08
2022-09-11T04:57:09.609Z,21.23
2022-09-11T04:59:42.020Z,20.58
2022-09-11T05:02:15.168Z,20.08
2022-09-11T05:04:47.047Z,16.98
2022-09-11T05:07:14.920Z,16.40
2022-09-11T05:09:47.463Z,16.70
2022-09-11T05:12:22.126Z,16.77
2022-09-11T05:14:52.243Z,17.45
2022-09-11T05:17:20.713Z,18.33
2022-09-11T05:19:49.345Z,18.38
2022-09-11T05:22:19.123Z,18.13
2022-09-11T05:24:52.639Z,18.50
2022-09-11T05:27:19.899Z,17.35
2022-09-11T05:29:47.376Z,17.42
2022-09-11T05:32:15.878Z,18.23
2022-09-11T05:34:44.593Z,19.02
2022-09-11T05:37:15.499Z,17.90
2022-09-11T05:39:48.278Z,15.82
2022-09-11T05:42:16.841Z,18.77
2022-09-11T05:44:49.129Z,16.85
2022-09-11T05:47:16.940Z,16.08
2022-09-11T05:49:47.674Z,16.65
2022-09-11T05:52:17.604Z,17.83
2022-09-11T05:54:46.243Z,17.92
2022-09-11T05:57:15.053Z,18.02
2022-09-11T05:59:43.020Z,18.58
2022-09-11T06:02:14.943Z,20.38
2022-09-11T06:04:48.086Z,21.23
2022-09-11T06:07:15.539Z,20.45
2022-09-11T06:09:47.091Z,21.63
2022-09-11T06:12:17.327Z,22.73
2022-09-11T06:14:44.923Z,28.50
2022-09-11T06:17:13.478Z,25.65
2022-09-11T06:19:41.172Z,28.45
2022-09-11T06:22:11.252Z,33.13
2022-09-11T06:24:42.294Z,37.63
2022-09-11T06:27:10.092Z,34.60
2022-09-11T06:29:40.717Z,34.30
2022-09-11T06:32:08.263Z,32.83
2022-09-11T06:34:38.500Z,32.95
2022-09-11T06:37:09.664Z,34.42
2022-09-11T06:39:37.155Z,35.47
2022-09-11T06:42:07.274Z,37.38
2022-09-11T06:44:36.865Z,35.90
2022-09-11T06:47:06.633Z,33.58
2022-09-11T06:49:41.456Z,35.33
2022-09-11T06:52:35.426Z,40.10
2022-09-11T06:55:16.195Z,29.85
2022-09-11T06:57:56.162Z,29.48
2022-09-11T07:00:31.794Z,25.17
2022-09-11T07:02:59.208Z,26.17
2022-09-11T07:05:27.569Z,29.77
2022-09-11T07:07:56.692Z,28.80
2022-09-11T07:10:26.232Z,31.23
2022-09-11T07:13:01.584Z,39.63
2022-09-11T07:15:32.366Z,32.97
2022-09-11T07:18:02.358Z,37.95
2022-09-11T07:20:31.447Z,35.70
2022-09-11T07:22:59.419Z,34.33
2022-09-11T07:25:29.224Z,32.15
2022-09-11T07:27:58.829Z,30.77
2022-09-11T07:30:31.637Z,28.27
2022-09-11T07:32:59.679Z,28.20
2022-09-11T07:35:27.214Z,28.27
2022-09-11T07:37:56.295Z,27.80
2022-09-11T07:40:27.268Z,26.45
2022-09-11T07:42:57.954Z,27.05
2022-09-11T07:45:28.304Z,26.40
2022-09-11T07:47:56.315Z,27.10
2022-09-11T07:50:24.538Z,26.73
2022-09-11T07:53:07.399Z,24.65
2022-09-11T07:55:36.245Z,22.80
2022-09-11T07:58:04.265Z,21.85
2022-09-11T08:00:35.232Z,22.00
2022-09-11T08:03:15.011Z,21.88
2022-09-11T08:05:42.678Z,19.40
2022-09-11T08:08:16.208Z,15.48
2022-09-11T08:10:47.858Z,15.88
2022-09-11T08:13:17.443Z,15.65
2022-09-11T08:15:48.176Z,14.07
2022-09-11T08:18:16.089Z,11.65
2022-09-11T08:20:43.959Z,10.90
2022-09-11T08:23:12.017Z,11.20
2022-09-11T08:25:39.695Z,9.60
2022-09-11T08:28:09.077Z,9.38
2022-09-11T08:30:39.413Z,7.50
2022-09-11T08:33:10.453Z,5.78
2022-09-11T08:35:38.526Z,5.18
2022-09-11T08:38:07.380Z,5.65
2022-09-11T08:40:39.140Z,5.38
2022-09-11T08:43:23.307Z,6.30
2022-09-11T08:45:55.853Z,5.13
2022-09-11T08:48:31.849Z,5.75
2022-09-11T08:50:59.875Z,5.28
2022-09-11T08:53:29.038Z,5.25
2022-09-11T08:58:36.812Z,5.50
2022-09-11T09:01:19.334Z,4.80
2022-09-11T09:03:53.804Z,4.70
2022-09-11T09:06:28.638Z,4.80
2022-09-11T09:08:57.177Z,5.00
2022-09-11T09:11:29.145Z,5.43
2022-09-11T09:14:11.757Z,4.55
2022-09-11T09:16:40.247Z,4.80
2022-09-11T09:19:14.239Z,4.25
2022-09-11T09:21:59.623Z,4.45
2022-09-11T09:24:31.093Z,3.70
2022-09-11T09:27:10.393Z,4.18
2022-09-11T09:29:51.860Z,4.25
2022-09-11T09:32:24.863Z,3.80
2022-09-11T09:34:53.861Z,3.95
2022-09-11T09:37:22.416Z,4.15
2022-09-11T09:39:54.941Z,4.28
2022-09-11T09:42:42.132Z,3.72
2022-09-11T09:45:26.706Z,4.22
2022-09-11T09:47:54.205Z,5.75
2022-09-11T09:50:23.864Z,5.80
2022-09-11T09:52:59.461Z,4.82
2022-09-11T09:55:38.938Z,5.13
2022-09-11T09:58:07.654Z,3.80
2022-09-11T10:00:39.057Z,4.10
2022-09-11T10:03:21.739Z,3.83
2022-09-11T10:05:50.581Z,3.47
2022-09-11T10:08:29.580Z,3.28
2022-09-11T10:11:00.568Z,3.10
2022-09-11T10:13:35.570Z,3.50
2022-09-11T10:16:04.291Z,3.70
2022-09-11T10:18:42.369Z,3.47
2022-09-11T10:21:13.086Z,3.10
2022-09-11T10:23:54.741Z,3.00
2022-09-11T10:26:34.586Z,2.97
2022-09-11T10:29:07.328Z,3.20
2022-09-11T10:31:41.590Z,3.50
2022-09-11T10:34:35.818Z,3.05
2022-09-11T10:37:17.906Z,3.22
2022-09-11T10:39:48.147Z,3.47
2022-09-11T10:42:27.920Z,3.55
2022-09-11T10:45:02.059Z,3.40
2022-09-11T10:47:33.527Z,3.75
2022-09-11T10:50:23.432Z,3.13
2022-09-11T10:53:00.132Z,3.83
2022-09-11T10:55:30.489Z,2.72
2022-09-11T10:58:06.721Z,4.00
2022-09-11T11:00:36.038Z,4.05
2022-09-11T11:03:11.016Z,3.63
2022-09-11T11:05:47.170Z,2.83
2022-09-11T11:08:34.818Z,3.15
2022-09-11T11:11:14.144Z,3.40
2022-09-11T11:14:00.488Z,2.90
2022-09-11T11:16:36.294Z,3.72
2022-09-11T11:19:06.776Z,3.40
2022-09-11T11:21:37.654Z,3.40
2022-09-11T11:24:25.694Z,2.90
2022-09-11T11:27:22.211Z,3.42
2022-09-11T11:30:08.111Z,3.30
2022-09-11T11:32:54.422Z,3.20
2022-09-11T11:35:39.296Z,3.70
2022-09-11T11:38:25.712Z,4.32
2022-09-11T11:41:13.720Z,3.33
2022-09-11T11:43:44.871Z,3.20
2022-09-11T11:46:29.478Z,3.67
2022-09-11T11:49:00.935Z,2.85
2022-09-11T11:51:29.254Z,3.42
2022-09-11T11:54:06.948Z,3.20
2022-09-11T11:56:42.883Z,3.25
2022-09-11T11:59:43.378Z,2.92
2022-09-11T12:02:34.888Z,2.95
2022-09-11T12:05:05.429Z,2.88
2022-09-11T12:07:37.379Z,2.65
2022-09-11T12:10:12.422Z,3.25
2022-09-11T12:13:04.180Z,2.80
2022-09-11T12:15:41.729Z,2.70
2022-09-11T12:18:17.142Z,3.08
2022-09-11T12:23:35.145Z,2.92
2022-09-11T12:26:10.035Z,3.20
2022-09-11T12:28:45.775Z,4.40
2022-09-11T12:31:17.349Z,3.47
2022-09-11T12:33:46.115Z,3.50
2022-09-11T12:36:41.328Z,2.97
2022-09-11T12:39:47.493Z,3.63
2022-09-11T12:42:24.310Z,4.03
2022-09-11T12:45:02.222Z,3.83
2022-09-11T12:47:47.785Z,3.85
2022-09-11T12:50:27.313Z,3.13
2022-09-11T12:53:04.259Z,3.78
2022-09-11T12:55:39.340Z,3.13
2022-09-11T12:58:26.695Z,3.72
2022-09-11T13:01:16.584Z,3.60
2022-09-11T13:04:09.731Z,3.10
2022-09-11T13:07:00.761Z,3.70
2022-09-11T13:09:30.551Z,3.30
2022-09-11T13:12:19.329Z,3.50
2022-09-11T13:14:50.817Z,3.17
2022-09-11T13:17:41.104Z,2.90
2022-09-11T13:20:23.982Z,3.13
2022-09-11T13:22:58.441Z,3.28
2022-09-11T13:25:31.480Z,3.10
2022-09-11T13:28:03.384Z,3.10
2022-09-11T13:30:32.867Z,3.42
2022-09-11T13:33:16.025Z,3.47
2022-09-11T13:35:49.963Z,4.18
2022-09-11T13:38:37.040Z,3.20
2022-09-11T13:41:21.572Z,3.28
2022-09-11T13:43:57.543Z,4.00
2022-09-11T13:46:35.111Z,3.22
2022-09-11T13:49:10.537Z,3.50
2022-09-11T13:51:42.316Z,2.60
2022-09-11T13:54:12.578Z,2.65
2022-09-11T13:57:02.660Z,2.80
2022-09-11T13:59:53.853Z,3.97
2022-09-11T14:02:28.646Z,3.88
2022-09-11T14:05:16.998Z,2.75
2022-09-11T14:08:04.819Z,2.80
2022-09-11T14:10:33.879Z,2.70
2022-09-11T14:13:07.029Z,3.00
2022-09-11T14:15:44.175Z,3.10
2022-09-11T14:18:21.659Z,3.20
2022-09-11T14:20:58.983Z,3.13
2022-09-11T14:23:29.569Z,3.05
2022-09-11T14:26:06.071Z,3.17
2022-09-11T14:28:44.963Z,3.00
2022-09-11T14:31:20.688Z,3.00
2022-09-11T14:33:51.056Z,3.70
2022-09-11T14:36:24.655Z,2.83
2022-09-11T14:38:54.509Z,3.33
2022-09-11T14:41:25.123Z,3.55
2022-09-11T14:43:59.547Z,2.95
2022-09-11T14:46:35.603Z,3.95
2022-09-11T14:49:11.866Z,3.25
2022-09-11T14:51:43.491Z,3.15
2022-09-11T14:54:16.785Z,3.05
2022-09-11T14:56:51.488Z,3.95
2022-09-11T14:59:25.389Z,3.63
2022-09-11T15:02:16.416Z,3.20
2022-09-11T15:04:52.787Z,3.40
2022-09-11T15:07:28.142Z,3.13
2022-09-11T15:10:02.723Z,4.35
2022-09-11T15:12:31.441Z,10.52
2022-09-11T15:15:04.647Z,10.32
2022-09-11T15:17:36.499Z,11.05
2022-09-11T15:20:10.714Z,13.63
2022-09-11T15:22:46.540Z,9.43
2022-09-11T15:25:19.158Z,13.32
2022-09-11T15:27:59.162Z,6.65
2022-09-11T15:30:27.871Z,5.82
2022-09-11T15:32:58.778Z,8.27
2022-09-11T15:35:39.455Z,3.65
2022-09-11T15:38:18.817Z,4.30
2022-09-11T15:41:01.932Z,4.13
2022-09-11T15:43:41.343Z,3.50
2022-09-11T15:47:59.508Z,3.40
2022-09-11T15:50:42.352Z,3.95
2022-09-11T15:53:23.489Z,3.80
2022-09-11T15:55:55.586Z,3.60
2022-09-11T16:04:15.602Z,3.47
2022-09-11T16:06:47.353Z,3.25
2022-09-11T16:09:27.223Z,4.13
2022-09-11T16:14:49.015Z,3.60
2022-09-11T16:17:33.823Z,13.30
2022-09-11T16:20:07.131Z,8.88
2022-09-11T16:22:47.029Z,6.82
2022-09-11T16:25:15.611Z,4.43
2022-09-11T16:27:43.794Z,8.48
2022-09-11T16:30:42.275Z,7.40
2022-09-11T16:33:08.632Z,3.65
2022-09-11T16:35:44.179Z,4.10
2022-09-11T16:38:21.053Z,3.55
2022-09-11T16:41:13.020Z,3.40
2022-09-11T16:44:23.534Z,3.60
2022-09-11T16:51:12.697Z,4.45
2022-09-11T16:54:20.280Z,3.72
2022-09-11T17:08:32.577Z,3.40
2022-09-11T17:11:14.431Z,3.22
2022-09-11T17:13:47.515Z,3.58
2022-09-11T17:16:17.072Z,7.47
2022-09-11T17:18:51.136Z,5.70
2022-09-11T17:21:21.284Z,4.78
2022-09-11T17:23:56.701Z,3.72
2022-09-11T17:26:42.082Z,3.80
2022-09-11T17:31:48.645Z,4.38
2022-09-11T17:34:18.222Z,4.40
2022-09-11T17:36:49.404Z,4.15
2022-09-11T17:39:16.963Z,3.90
2022-09-11T17:41:44.614Z,4.78
2022-09-11T17:44:14.718Z,4.15
2022-09-11T17:46:44.382Z,3.90
2022-09-11T17:49:24.053Z,4.15
2022-09-11T17:51:54.716Z,4.55
2022-09-11T17:54:22.490Z,3.85
2022-09-11T18:00:32.958Z,4.35
2022-09-11T18:06:34.774Z,5.03
2022-09-11T18:21:25.092Z,3.40
2022-09-11T18:23:59.678Z,3.25
2022-09-11T18:26:34.526Z,3.53
2022-09-11T18:29:22.689Z,3.22
2022-09-11T18:31:57.744Z,3.60
2022-09-11T18:34:29.248Z,3.13
2022-09-11T18:36:59.923Z,3.17
2022-09-11T18:39:29.280Z,3.80
2022-09-11T18:42:00.053Z,4.00
2022-09-11T18:44:37.522Z,3.75
2022-09-11T18:47:15.038Z,3.80
2022-09-11T18:52:32.288Z,3.60
2022-09-11T18:55:10.415Z,4.57
2022-09-11T18:57:52.272Z,3.63
2022-09-11T19:00:25.486Z,3.70
2022-09-11T19:02:57.321Z,3.53
2022-09-11T19:05:32.412Z,3.70
2022-09-11T19:08:01.779Z,3.70
2022-09-11T19:10:38.925Z,3.78
2022-09-11T19:13:10.834Z,3.95
2022-09-11T19:15:49.503Z,3.58
2022-09-11T19:18:21.597Z,3.90
2022-09-11T19:21:10.358Z,3.53
2022-09-11T19:23:43.114Z,3.67
2022-09-11T19:26:12.367Z,3.53
2022-09-11T19:28:54.001Z,4.18
2022-09-11T19:31:25.249Z,4.13
2022-09-11T19:33:57.602Z,4.28
2022-09-11T19:36:28.109Z,4.53
2022-09-11T19:39:02.724Z,4.47
2022-09-11T19:41:38.669Z,4.82
2022-09-11T19:44:07.705Z,3.92
2022-09-11T19:46:36.120Z,5.18
2022-09-11T19:49:17.648Z,4.38
2022-09-11T19:51:48.973Z,4.70
2022-09-11T19:54:16.813Z,5.20
2022-09-11T19:56:58.056Z,4.38
2022-09-11T19:59:34.611Z,4.97
2022-09-11T20:02:02.820Z,5.30
2022-09-11T20:04:32.503Z,5.55
2022-09-11T20:07:02.391Z,5.88
2022-09-11T20:09:31.732Z,5.75
2022-09-11T20:12:12.298Z,5.28
2022-09-11T20:14:51.143Z,6.18
2022-09-11T20:17:23.949Z,6.30
2022-09-11T20:19:54.386Z,6.65
2022-09-11T20:22:32.551Z,6.20
2022-09-11T20:25:00.626Z,6.35
2022-09-11T20:27:44.049Z,6.60
2022-09-11T20:30:29.935Z,8.02
2022-09-11T20:33:07.410Z,7.28
2022-09-11T20:35:37.168Z,7.22
2022-09-11T20:38:11.588Z,7.32
2022-09-11T20:40:47.469Z,7.32
2022-09-11T20:43:37.707Z,6.38
2022-09-11T20:46:22.691Z,7.32
2022-09-11T20:48:54.209Z,7.10
2022-09-11T20:51:23.399Z,7.32
2022-09-11T20:53:55.037Z,8.18
2022-09-11T20:56:30.755Z,7.85
2022-09-11T20:59:00.991Z,7.78
2022-09-11T21:01:41.098Z,7.97
2022-09-11T21:04:08.803Z,8.98
2022-09-11T21:06:42.499Z,8.88
2022-09-11T21:09:12.749Z,9.05
2022-09-11T21:11:48.260Z,9.85
2022-09-11T21:14:20.807Z,9.70
2022-09-11T21:16:51.500Z,9.63
2022-09-11T21:19:19.276Z,9.73
2022-09-11T21:24:50.735Z,9.40
2022-09-11T21:27:42.746Z,10.32
2022-09-11T21:30:19.375Z,9.50
2022-09-11T21:32:50.829Z,10.50
2022-09-11T21:35:36.480Z,10.32
2022-09-11T21:38:09.151Z,10.95
2022-09-11T21:40:40.991Z,9.32
2022-09-11T21:43:44.693Z,10.98
2022-09-11T21:46:36.902Z,10.80
2022-09-11T21:49:08.819Z,13.75
2022-09-11T21:54:39.703Z,15.18
2022-09-11T21:57:32.149Z,14.95
2022-09-11T22:00:11.849Z,16.05
2022-09-11T22:02:45.311Z,17.75
2022-09-11T22:05:29.993Z,18.17
2022-09-11T22:10:54.493Z,20.38
2022-09-11T22:13:28.681Z,18.48
2022-09-11T22:16:13.106Z,21.20
2022-09-11T22:18:57.794Z,20.25
2022-09-11T22:21:34.605Z,21.20
2022-09-11T22:27:07.889Z,21.90
2022-09-11T22:29:58.015Z,21.92
2022-09-11T22:32:34.574Z,22.50
2022-09-11T22:35:06.172Z,22.02
2022-09-11T22:37:42.863Z,22.73
2022-09-11T22:40:28.404Z,22.65
2022-09-11T22:42:58.463Z,22.23
2022-09-11T22:45:33.301Z,23.85
2022-09-11T22:48:04.764Z,23.80
2022-09-11T22:50:33.904Z,24.05
2022-09-11T22:53:04.749Z,23.65
2022-09-11T22:55:32.448Z,24.30
2022-09-11T22:58:11.546Z,23.60
2022-09-11T23:00:58.597Z,24.83
2022-09-11T23:03:44.145Z,26.10
2022-09-11T23:06:35.460Z,24.20
2022-09-11T23:09:09.602Z,26.02
2022-09-11T23:11:40.514Z,24.55
2022-09-11T23:14:14.119Z,26.77
2022-09-11T23:16:43.577Z,25.25
2022-09-11T23:19:37.426Z,27.10
2022-09-11T23:22:07.840Z,25.98
2022-09-11T23:24:38.518Z,26.83
2022-09-11T23:27:11.244Z,26.98
2022-09-11T23:29:47.015Z,26.92
2022-09-11T23:32:20.223Z,26.58
2022-09-11T23:35:00.876Z,27.23
2022-09-11T23:37:28.913Z,27.65
2022-09-11T23:40:02.883Z,27.60
2022-09-11T23:42:52.917Z,27.08
2022-09-11T23:45:29.059Z,27.17
2022-09-11T23:48:02.266Z,28.85
2022-09-11T23:50:37.585Z,28.83
2022-09-11T23:53:13.767Z,27.25
2022-09-11T23:55:45.731Z,30.45
2022-09-11T23:58:16.529Z,28.30
